Wetterdaten: aktuell Samstag, 16.01.2021 22:35
Datum Zeit Temp. A. Feuchte A. Luftdruck Regen Wind Richtung Richtung Taupunkt Windchill Windben
16.01.2021 22:35 -7,7 C 93 % 1021,3 hPa 0,0 l/m 0,0 km/h (0 Bft) NW 326 -8,6 C -7,7 C 0,0 km/h (0 Bft)
16.01.2021 22:30 -7,7 C 93 % 1021,4 hPa 0,0 l/m 0,0 km/h (0 Bft) N 360 -8,6 C -7,7 C 0,0 km/h (0 Bft)
16.01.2021 22:25 -7,7 C 93 % 1021,3 hPa 0,0 l/m 0,0 km/h (0 Bft) N 350 -8,6 C -7,7 C 0,0 km/h (0 Bft)
16.01.2021 22:20 -7,7 C 93 % 1021,4 hPa 0,0 l/m 0,0 km/h (0 Bft) N-NO 16 -8,6 C -7,7 C 0,0 km/h (0 Bft)
16.01.2021 22:15 -7,7 C 93 % 1021,4 hPa 0,0 l/m 1,3 km/h (1 Bft) NW 307 -8,6 C -7,7 C 8,0 km/h (2 Bft)
16.01.2021 22:10 -7,8 C 93 % 1021,5 hPa 0,0 l/m 0,0 km/h (0 Bft) N-NO 30 -8,7 C -7,8 C 0,0 km/h (0 Bft)
16.01.2021 22:05 -7,8 C 93 % 1021,5 hPa 0,0 l/m 0,5 km/h (0 Bft) NO 42 -8,7 C -7,8 C 4,8 km/h (1 Bft)
16.01.2021 22:00 -7,8 C 93 % 1021,5 hPa 0,0 l/m 3,2 km/h (1 Bft) SW 221 -8,7 C -7,8 C 17,7 km/h (3 Bft)
16.01.2021 21:55 -7,8 C 93 % 1021,6 hPa 0,0 l/m 0,5 km/h (0 Bft) N-NW 339 -8,7 C -7,8 C 6,4 km/h (2 Bft)
16.01.2021 21:50 -7,8 C 93 % 1021,5 hPa 0,0 l/m 1,1 km/h (1 Bft) N-NW 340 -8,7 C -7,8 C 8,0 km/h (2 Bft)
16.01.2021 21:45 -7,8 C 93 % 1021,4 hPa 0,0 l/m 1,1 km/h (1 Bft) NO 44 -8,7 C -7,8 C 12,9 km/h (3 Bft)
16.01.2021 21:40 -7,8 C 93 % 1021,5 hPa 0,0 l/m 1,6 km/h (1 Bft) W-SW 246 -8,7 C -7,8 C 12,9 km/h (3 Bft)
16.01.2021 21:35 -7,8 C 93 % 1021,5 hPa 0,0 l/m 1,2 km/h (1 Bft) NO 39 -8,7 C -7,8 C 17,7 km/h (3 Bft)
16.01.2021 21:30 -7,8 C 93 % 1021,6 hPa 0,0 l/m 0,0 km/h (0 Bft) NW 321 -8,7 C -7,8 C 0,0 km/h (0 Bft)
16.01.2021 21:25 -7,8 C 93 % 1021,7 hPa 0,0 l/m 0,1 km/h (0 Bft) SW 221 -8,7 C -7,8 C 3,2 km/h (1 Bft)
16.01.2021 21:20 -7,7 C 93 % 1021,7 hPa 0,0 l/m 0,9 km/h (0 Bft) N 360 -8,6 C -7,7 C 6,4 km/h (2 Bft)
16.01.2021 21:15 -7,7 C 93 % 1021,6 hPa 0,0 l/m 0,0 km/h (0 Bft) W 260 -8,6 C -7,7 C 0,0 km/h (0 Bft)
16.01.2021 21:10 -7,7 C 93 % 1021,7 hPa 0,0 l/m 0,4 km/h (0 Bft) NO 41 -8,6 C -7,7 C 4,8 km/h (1 Bft)
16.01.2021 21:05 -7,7 C 93 % 1021,8 hPa 0,0 l/m 0,0 km/h (0 Bft) N-NW 346 -8,6 C -7,7 C 0,0 km/h (0 Bft)
16.01.2021 21:00 -7,7 C 93 % 1021,8 hPa 0,0 l/m 0,0 km/h (0 Bft) W-NW 285 -8,6 C -7,7 C 0,0 km/h (0 Bft)
16.01.2021 20:55 -7,7 C 93 % 1022,0 hPa 0,0 l/m 0,0 km/h (0 Bft) W-NW 300 -8,6 C -7,7 C 1,6 km/h (1 Bft)
16.01.2021 20:50 -7,7 C 93 % 1022,1 hPa 0,0 l/m 0,0 km/h (0 Bft) W-NW 296 -8,6 C -7,7 C 0,0 km/h (0 Bft)
16.01.2021 20:45 -7,7 C 93 % 1022,1 hPa 0,0 l/m 0,6 km/h (0 Bft) O-SO 113 -8,6 C -7,7 C 3,2 km/h (1 Bft)
16.01.2021 20:40 -7,7 C 93 % 1022,2 hPa 0,0 l/m 0,6 km/h (0 Bft) O 98 -8,6 C -7,7 C 4,8 km/h (1 Bft)
16.01.2021 20:35 -7,7 C 93 % 1022,2 hPa 0,0 l/m 0,2 km/h (0 Bft) NW 309 -8,6 C -7,7 C 4,8 km/h (1 Bft)
16.01.2021 20:30 -7,7 C 93 % 1022,4 hPa 0,0 l/m 1,8 km/h (1 Bft) S 177 -8,6 C -7,7 C 9,7 km/h (2 Bft)
16.01.2021 20:25 -7,8 C 93 % 1022,4 hPa 0,0 l/m 1,4 km/h (1 Bft) W 270 -8,7 C -7,8 C 8,0 km/h (2 Bft)
16.01.2021 20:20 -7,8 C 93 % 1022,4 hPa 0,0 l/m 1,0 km/h (0 Bft) N-NW 334 -8,7 C -7,8 C 11,3 km/h (2 Bft)
16.01.2021 20:15 -7,8 C 93 % 1022,4 hPa 0,0 l/m 1,0 km/h (0 Bft) NW 318 -8,7 C -7,8 C 16,1 km/h (3 Bft)
16.01.2021 20:10 -7,9 C 93 % 1022,5 hPa 0,0 l/m 1,2 km/h (1 Bft) NW 317 -8,8 C -7,9 C 6,4 km/h (2 Bft)
16.01.2021 20:05 -7,9 C 93 % 1022,4 hPa 0,0 l/m 0,0 km/h (0 Bft) NW 323 -8,8 C -7,9 C 1,6 km/h (1 Bft)
16.01.2021 20:00 -7,9 C 93 % 1022,4 hPa 0,0 l/m 0,9 km/h (0 Bft) NO 38 -8,8 C -7,9 C 11,3 km/h (2 Bft)
16.01.2021 19:55 -8,0 C 93 % 1022,3 hPa 0,0 l/m 0,0 km/h (0 Bft) O 83 -8,9 C -8,0 C 0,0 km/h (0 Bft)
16.01.2021 19:50 -8,0 C 93 % 1022,4 hPa 0,0 l/m 0,0 km/h (0 Bft) N-NW 338 -8,9 C -8,0 C 0,0 km/h (0 Bft)
16.01.2021 19:45 -8,1 C 93 % 1022,5 hPa 0,0 l/m 1,5 km/h (1 Bft) N 360 -9,0 C -8,1 C 6,4 km/h (2 Bft)
16.01.2021 19:40 -8,1 C 93 % 1022,6 hPa 0,0 l/m 3,9 km/h (1 Bft) NW 319 -9,0 C -8,1 C 16,1 km/h (3 Bft)
16.01.2021 19:35 -8,1 C 93 % 1022,5 hPa 0,0 l/m 1,6 km/h (1 Bft) W-NW 286 -9,0 C -8,1 C 16,1 km/h (3 Bft)
16.01.2021 19:30 -8,1 C 93 % 1022,6 hPa 0,0 l/m 0,0 km/h (0 Bft) N 350 -9,0 C -8,1 C 0,0 km/h (0 Bft)
16.01.2021 19:25 -8,1 C 93 % 1022,6 hPa 0,0 l/m 0,0 km/h (0 Bft) W 275 -9,0 C -8,1 C 0,0 km/h (0 Bft)
16.01.2021 19:20 -8,1 C 93 % 1022,6 hPa 0,0 l/m 0,0 km/h (0 Bft) N-NO 17 -9,0 C -8,1 C 0,0 km/h (0 Bft)
16.01.2021 19:15 -8,1 C 92 % 1022,6 hPa 0,0 l/m 0,0 km/h (0 Bft) N-NW 332 -9,2 C -8,1 C 0,0 km/h (0 Bft)
16.01.2021 19:10 -8,2 C 92 % 1022,5 hPa 0,0 l/m 0,0 km/h (0 Bft) N 349 -9,3 C -8,2 C 0,0 km/h (0 Bft)
16.01.2021 19:05 -8,2 C 92 % 1022,6 hPa 0,0 l/m 0,9 km/h (0 Bft) N-NW 329 -9,3 C -8,2 C 6,4 km/h (2 Bft)
16.01.2021 19:00 -8,2 C 92 % 1022,6 hPa 0,0 l/m 2,3 km/h (1 Bft) O-NO 64 -9,3 C -8,2 C 12,9 km/h (3 Bft)
16.01.2021 18:55 -8,2 C 92 % 1022,6 hPa 0,0 l/m 2,1 km/h (1 Bft) N 5 -9,3 C -8,2 C 11,3 km/h (2 Bft)
16.01.2021 18:50 -8,2 C 92 % 1022,7 hPa 0,0 l/m 0,0 km/h (0 Bft) W-SW 257 -9,3 C -8,2 C 0,0 km/h (0 Bft)
16.01.2021 18:45 -8,2 C 92 % 1022,8 hPa 0,0 l/m 0,0 km/h (0 Bft) W 260 -9,3 C -8,2 C 0,0 km/h (0 Bft)
16.01.2021 18:40 -8,2 C 92 % 1022,8 hPa 0,0 l/m 1,2 km/h (1 Bft) NW 325 -9,3 C -8,2 C 11,3 km/h (2 Bft)
16.01.2021 18:35 -8,3 C 92 % 1022,8 hPa 0,0 l/m 1,6 km/h (1 Bft) NW 321 -9,4 C -8,3 C 14,5 km/h (3 Bft)
16.01.2021 18:30 -8,3 C 92 % 1022,8 hPa 0,0 l/m 2,4 km/h (1 Bft) N-NW 336 -9,4 C -8,3 C 9,7 km/h (2 Bft)
16.01.2021 18:25 -8,3 C 92 % 1022,8 hPa 0,0 l/m 4,5 km/h (1 Bft) O 92 -9,4 C -8,3 C 17,7 km/h (3 Bft)
16.01.2021 18:20 -8,3 C 92 % 1022,8 hPa 0,0 l/m 4,8 km/h (1 Bft) W-NW 286 -9,4 C -8,3 C 14,5 km/h (3 Bft)
16.01.2021 18:15 -8,3 C 92 % 1022,9 hPa 0,0 l/m 0,7 km/h (0 Bft) NO 55 -9,4 C -8,3 C 6,4 km/h (2 Bft)
16.01.2021 18:10 -8,3 C 92 % 1022,8 hPa 0,0 l/m 2,1 km/h (1 Bft) S-SO 160 -9,4 C -8,3 C 16,1 km/h (3 Bft)
16.01.2021 18:05 -8,3 C 92 % 1022,8 hPa 0,0 l/m 2,3 km/h (1 Bft) NO 44 -9,4 C -8,3 C 17,7 km/h (3 Bft)
16.01.2021 18:00 -8,3 C 92 % 1022,8 hPa 0,0 l/m 1,5 km/h (1 Bft) W-NW 302 -9,4 C -8,3 C 9,7 km/h (2 Bft)
16.01.2021 17:55 -8,3 C 92 % 1022,9 hPa 0,0 l/m 4,9 km/h (1 Bft) W-NW 288 -9,4 C -8,3 C 17,7 km/h (3 Bft)
16.01.2021 17:50 -8,3 C 92 % 1022,9 hPa 0,0 l/m 2,1 km/h (1 Bft) W-NW 294 -9,4 C -8,3 C 14,5 km/h (3 Bft)
16.01.2021 17:45 -8,3 C 92 % 1022,9 hPa 0,0 l/m 1,6 km/h (1 Bft) NO 45 -9,4 C -8,3 C 8,0 km/h (2 Bft)
16.01.2021 17:40 -8,3 C 92 % 1022,8 hPa 0,0 l/m 2,4 km/h (1 Bft) SW 229 -9,4 C -8,3 C 16,1 km/h (3 Bft)
16.01.2021 17:35 -8,3 C 92 % 1022,9 hPa 0,0 l/m 2,0 km/h (1 Bft) W-NW 302 -9,4 C -8,3 C 12,9 km/h (3 Bft)
16.01.2021 17:30 -8,4 C 92 % 1022,9 hPa 0,0 l/m 0,7 km/h (0 Bft) SW 236 -9,5 C -8,4 C 6,4 km/h (2 Bft)
16.01.2021 17:25 -8,4 C 92 % 1022,9 hPa 0,0 l/m 3,4 km/h (1 Bft) N 360 -9,5 C -8,4 C 22,5 km/h (4 Bft)
16.01.2021 17:20 -8,4 C 92 % 1022,8 hPa 0,0 l/m 1,7 km/h (1 Bft) N-NW 327 -9,5 C -8,4 C 12,9 km/h (3 Bft)
16.01.2021 17:15 -8,4 C 92 % 1022,9 hPa 0,0 l/m 1,4 km/h (1 Bft) O-SO 110 -9,5 C -8,4 C 9,7 km/h (2 Bft)
16.01.2021 17:10 -8,5 C 91 % 1022,9 hPa 0,0 l/m 2,5 km/h (1 Bft) NW 305 -9,7 C -8,5 C 8,0 km/h (2 Bft)
16.01.2021 17:05 -8,5 C 91 % 1022,9 hPa 0,0 l/m 5,2 km/h (1 Bft) W-NW 302 -9,7 C -8,5 C 19,3 km/h (3 Bft)
16.01.2021 17:00 -8,6 C 91 % 1022,9 hPa 0,0 l/m 2,8 km/h (1 Bft) NW 304 -9,8 C -8,6 C 17,7 km/h (3 Bft)
16.01.2021 16:55 -8,6 C 91 % 1022,9 hPa 0,0 l/m 0,9 km/h (0 Bft) W 281 -9,8 C -8,6 C 14,5 km/h (3 Bft)
16.01.2021 16:50 -8,6 C 91 % 1022,9 hPa 0,0 l/m 2,2 km/h (1 Bft) S 183 -9,8 C -8,6 C 19,3 km/h (3 Bft)
16.01.2021 16:45 -8,6 C 91 % 1022,9 hPa 0,0 l/m 2,0 km/h (1 Bft) W-NW 291 -9,8 C -8,6 C 8,0 km/h (2 Bft)
16.01.2021 16:40 -8,6 C 91 % 1022,9 hPa 0,0 l/m 2,0 km/h (1 Bft) N-NW 333 -9,8 C -8,6 C 12,9 km/h (3 Bft)
16.01.2021 16:35 -8,6 C 91 % 1022,9 hPa 0,0 l/m 0,2 km/h (0 Bft) W 274 -9,8 C -8,6 C 12,9 km/h (3 Bft)
16.01.2021 16:30 -8,6 C 91 % 1023,0 hPa 0,0 l/m 0,8 km/h (0 Bft) W-NW 293 -9,8 C -8,6 C 4,8 km/h (1 Bft)
16.01.2021 16:25 -8,6 C 91 % 1023,1 hPa 0,0 l/m 2,7 km/h (1 Bft) N-NW 339 -9,8 C -8,6 C 14,5 km/h (3 Bft)
16.01.2021 16:20 -8,6 C 91 % 1023,1 hPa 0,0 l/m 1,6 km/h (1 Bft) NW 324 -9,8 C -8,6 C 9,7 km/h (2 Bft)
16.01.2021 16:15 -8,6 C 90 % 1023,1 hPa 0,0 l/m 1,5 km/h (1 Bft) W-NW 294 -9,9 C -8,6 C 14,5 km/h (3 Bft)
16.01.2021 16:10 -8,6 C 90 % 1023,2 hPa 0,0 l/m 0,0 km/h (0 Bft) W-NW 301 -9,9 C -8,6 C 0,0 km/h (0 Bft)
16.01.2021 16:05 -8,6 C 90 % 1023,1 hPa 0,0 l/m 0,0 km/h (0 Bft) N-NO 21 -9,9 C -8,6 C 3,2 km/h (1 Bft)
16.01.2021 16:00 -8,6 C 90 % 1023,1 hPa 0,0 l/m 0,1 km/h (0 Bft) W-NW 285 -9,9 C -8,6 C 3,2 km/h (1 Bft)
16.01.2021 15:55 -8,6 C 90 % 1023,2 hPa 0,0 l/m 2,2 km/h (1 Bft) SW 214 -9,9 C -8,6 C 8,0 km/h (2 Bft)
16.01.2021 15:50 -8,6 C 90 % 1023,2 hPa 0,0 l/m 2,0 km/h (1 Bft) N-NO 24 -9,9 C -8,6 C 12,9 km/h (3 Bft)
16.01.2021 15:45 -8,5 C 90 % 1023,2 hPa 0,0 l/m 0,0 km/h (0 Bft) N-NW 341 -9,8 C -8,5 C 0,0 km/h (0 Bft)
16.01.2021 15:40 -8,5 C 90 % 1023,1 hPa 0,0 l/m 1,0 km/h (0 Bft) W-NW 286 -9,8 C -8,5 C 11,3 km/h (2 Bft)
16.01.2021 15:35 -8,4 C 90 % 1023,2 hPa 0,2 l/m 0,0 km/h (0 Bft) S-SO 153 -9,7 C -8,4 C 0,0 km/h (0 Bft)
16.01.2021 15:30 -8,4 C 90 % 1023,3 hPa 0,0 l/m 1,1 km/h (1 Bft) W-NW 303 -9,7 C -8,4 C 4,8 km/h (1 Bft)
16.01.2021 15:25 -8,4 C 89 % 1023,3 hPa 0,0 l/m 2,4 km/h (1 Bft) N 351 -9,9 C -8,4 C 22,5 km/h (4 Bft)
16.01.2021 15:20 -8,4 C 90 % 1023,4 hPa 0,0 l/m 0,0 km/h (0 Bft) O-SO 116 -9,7 C -8,4 C 0,0 km/h (0 Bft)
16.01.2021 15:15 -8,4 C 89 % 1023,4 hPa 0,0 l/m 1,3 km/h (1 Bft) SW 232 -9,9 C -8,4 C 8,0 km/h (2 Bft)
16.01.2021 15:10 -8,4 C 89 % 1023,5 hPa 0,0 l/m 0,8 km/h (0 Bft) O-NO 71 -9,9 C -8,4 C 4,8 km/h (1 Bft)
16.01.2021 15:05 -8,4 C 89 % 1023,4 hPa 0,0 l/m 0,0 km/h (0 Bft) N-NW 348 -9,9 C -8,4 C 1,6 km/h (1 Bft)
16.01.2021 15:00 -8,4 C 89 % 1023,5 hPa 0,0 l/m 0,0 km/h (0 Bft) W 272 -9,9 C -8,4 C 0,0 km/h (0 Bft)
16.01.2021 14:55 -8,3 C 89 % 1023,5 hPa 0,0 l/m 0,7 km/h (0 Bft) SW 236 -9,8 C -8,3 C 6,4 km/h (2 Bft)
16.01.2021 14:50 -8,3 C 89 % 1023,5 hPa 0,0 l/m 1,8 km/h (1 Bft) NW 319 -9,8 C -8,3 C 12,9 km/h (3 Bft)
16.01.2021 14:45 -8,3 C 89 % 1023,6 hPa 0,0 l/m 0,7 km/h (0 Bft) S-SO 157 -9,8 C -8,3 C 8,0 km/h (2 Bft)
16.01.2021 14:40 -8,4 C 88 % 1023,6 hPa 0,0 l/m 0,7 km/h (0 Bft) W-NW 292 -10,0 C -8,4 C 11,3 km/h (2 Bft)
16.01.2021 14:35 -8,3 C 88 % 1023,7 hPa 0,0 l/m 1,1 km/h (1 Bft) W-SW 246 -9,9 C -8,3 C 11,3 km/h (2 Bft)
16.01.2021 14:30 -8,3 C 88 % 1023,8 hPa 0,0 l/m 0,0 km/h (0 Bft) S-SW 213 -9,9 C -8,3 C 0,0 km/h (0 Bft)
16.01.2021 14:25 -8,3 C 88 % 1023,7 hPa 0,0 l/m 0,0 km/h (0 Bft) S-SO 163 -9,9 C -8,3 C 0,0 km/h (0 Bft)
16.01.2021 14:20 -8,2 C 88 % 1023,7 hPa 0,0 l/m 0,0 km/h (0 Bft) N 355 -9,8 C -8,2 C 0,0 km/h (0 Bft)
_ Min-Zeit 07:50 14:10 22:25 - 23:20 - - 07:50 07:50 23:25
Minimum _ -10,1 C 88 % 1021,3 hPa - 0,0 km/h (0 Bft) - - -11,1 C -10,1 C 0,0 km/h (0 Bft)
_ Max-Zeit 23:00 23:00 02:20 00:10 17:05 - - 23:00 23:00 15:25
Maximum _ -7,3 C 94 % 1026,1 hPa 0,2 l/m 5,2 km/h
W-NW (1 Bft)
- - -8,1 C -7,3 C 22,5 km/h
NW (4 Bft)
Durchschnitt _ -8,3 C 92 % 1024,6 hPa #1,6 l/m 1,1 km/h (0 Bft) NW - -9,3 C -8,3 C 7,7 km/h (2 Bft)